createdAt,value
2018-08-24T00:01:01.412Z,59.54
2018-08-24T00:02:04.892Z,59.47
2018-08-24T00:03:08.361Z,59.41
2018-08-24T00:04:11.755Z,59.61
2018-08-24T00:05:15.238Z,59.36
2018-08-24T00:06:18.610Z,59.64
2018-08-24T00:07:22.157Z,59.48
2018-08-24T00:08:25.718Z,59.97
2018-08-24T00:09:29.101Z,59.59
2018-08-24T00:10:32.493Z,59.54
2018-08-24T00:11:35.900Z,59.73
2018-08-24T00:12:39.360Z,59.88
2018-08-24T00:13:42.816Z,59.90
2018-08-24T00:14:46.239Z,59.34
2018-08-24T00:15:49.637Z,59.20
2018-08-24T00:16:53.044Z,59.22
2018-08-24T00:17:56.454Z,59.10
2018-08-24T00:18:59.902Z,58.80
2018-08-24T00:20:03.465Z,59.14
2018-08-24T00:21:06.884Z,59.29
2018-08-24T00:22:10.312Z,59.26
2018-08-24T00:23:13.736Z,59.34
2018-08-24T00:24:17.195Z,59.70
2018-08-24T00:25:20.612Z,59.32
2018-08-24T00:26:24.024Z,58.68
2018-08-24T00:27:27.502Z,59.14
2018-08-24T00:28:30.948Z,58.70
2018-08-24T00:29:34.376Z,59.54
2018-08-24T00:30:37.747Z,59.12
2018-08-24T00:31:41.579Z,58.94
2018-08-24T00:32:44.931Z,58.98
2018-08-24T00:33:52.639Z,58.78
2018-08-24T00:34:56.064Z,58.74
2018-08-24T00:35:59.566Z,58.56
2018-08-24T00:37:02.984Z,58.36
2018-08-24T00:38:06.772Z,59.01
2018-08-24T00:39:10.192Z,58.52
2018-08-24T00:40:13.629Z,59.28
2018-08-24T00:41:17.047Z,58.86
2018-08-24T00:42:20.487Z,58.75
2018-08-24T00:43:23.920Z,58.74
2018-08-24T00:44:27.282Z,58.62
2018-08-24T00:45:30.680Z,58.43
2018-08-24T00:46:34.103Z,58.36
2018-08-24T00:47:37.530Z,58.42
2018-08-24T00:48:40.980Z,59.40
2018-08-24T00:49:44.418Z,58.46
2018-08-24T00:50:47.809Z,59.00
2018-08-24T00:51:51.235Z,58.46
2018-08-24T00:52:54.621Z,59.00
2018-08-24T00:53:58.074Z,59.31
2018-08-24T00:55:01.496Z,58.68
2018-08-24T00:56:04.877Z,58.82
2018-08-24T00:57:08.250Z,58.48
2018-08-24T00:58:11.668Z,58.51
2018-08-24T00:59:15.064Z,59.34
2018-08-24T01:00:18.628Z,58.34
2018-08-24T01:01:22.075Z,59.06
2018-08-24T01:02:25.513Z,59.39
2018-08-24T01:03:29.299Z,59.21
2018-08-24T01:04:33.500Z,59.22
2018-08-24T01:05:36.958Z,58.75
2018-08-24T01:06:40.375Z,59.32
2018-08-24T01:07:49.016Z,59.26
2018-08-24T01:08:52.538Z,59.26
2018-08-24T01:09:55.973Z,59.28
2018-08-24T01:10:59.410Z,59.08
2018-08-24T01:12:08.041Z,58.78
2018-08-24T01:13:14.862Z,58.87
2018-08-24T01:14:18.276Z,59.12
2018-08-24T01:15:21.707Z,58.84
2018-08-24T01:16:30.320Z,58.65
2018-08-24T01:17:38.905Z,59.25
2018-08-24T01:18:48.322Z,58.71
2018-08-24T01:19:51.982Z,58.84
2018-08-24T01:20:56.036Z,58.99
2018-08-24T01:21:59.455Z,58.43
2018-08-24T01:23:02.852Z,58.95
2018-08-24T01:24:06.682Z,59.37
2018-08-24T01:25:10.114Z,59.29
2018-08-24T01:26:13.542Z,59.04
2018-08-24T01:27:16.943Z,58.48
2018-08-24T01:28:20.690Z,58.49
2018-08-24T01:29:24.103Z,58.49
2018-08-24T01:30:27.539Z,58.85
2018-08-24T01:31:30.900Z,59.15
2018-08-24T01:32:34.327Z,58.92
2018-08-24T01:33:37.750Z,59.08
2018-08-24T01:34:41.121Z,59.43
2018-08-24T01:35:44.768Z,58.90
2018-08-24T01:36:48.139Z,59.03
2018-08-24T01:37:51.534Z,58.75
2018-08-24T01:38:54.946Z,59.56
2018-08-24T01:39:58.388Z,59.01
2018-08-24T01:41:01.778Z,59.06
2018-08-24T01:42:05.213Z,59.03
2018-08-24T01:43:09.649Z,59.09
2018-08-24T01:44:13.061Z,59.12
2018-08-24T01:45:16.484Z,59.01
2018-08-24T01:46:19.877Z,59.05
2018-08-24T01:47:24.219Z,59.04
2018-08-24T01:48:27.624Z,58.90
2018-08-24T01:49:31.017Z,58.98
2018-08-24T01:50:34.525Z,59.29
2018-08-24T01:51:37.904Z,58.93
2018-08-24T01:52:41.291Z,59.14
2018-08-24T01:53:44.688Z,58.54
2018-08-24T01:54:48.061Z,59.67
2018-08-24T01:55:51.589Z,58.92
2018-08-24T01:56:54.999Z,59.58
2018-08-24T01:57:58.418Z,58.82
2018-08-24T01:59:01.850Z,59.07
2018-08-24T02:00:05.736Z,58.83
2018-08-24T02:01:09.125Z,59.27
2018-08-24T02:02:12.601Z,58.95
2018-08-24T02:03:16.049Z,58.47
2018-08-24T02:04:19.438Z,58.92
2018-08-24T02:05:22.908Z,58.70
2018-08-24T02:06:26.336Z,59.02
2018-08-24T02:07:29.811Z,58.97
2018-08-24T02:08:33.310Z,58.94
2018-08-24T02:09:36.693Z,59.22
2018-08-24T02:10:40.095Z,59.02
2018-08-24T02:11:43.533Z,59.02
2018-08-24T02:12:52.193Z,59.27
2018-08-24T02:14:00.928Z,59.17
2018-08-24T02:15:04.423Z,59.46
2018-08-24T02:16:07.885Z,58.62
2018-08-24T02:17:16.674Z,59.13
2018-08-24T02:18:25.486Z,58.78
2018-08-24T02:20:36.166Z,59.61
2018-08-24T02:21:44.979Z,58.63
2018-08-24T02:22:53.116Z,59.48
2018-08-24T02:23:56.567Z,59.01
2018-08-24T02:24:59.957Z,59.12
2018-08-24T02:26:03.365Z,59.22
2018-08-24T02:27:06.746Z,58.55
2018-08-24T02:28:10.188Z,59.43
2018-08-24T02:29:13.674Z,59.13
2018-08-24T02:30:17.124Z,58.84
2018-08-24T02:31:20.641Z,59.02
2018-08-24T02:32:23.988Z,59.52
2018-08-24T02:33:27.422Z,58.66
2018-08-24T02:34:30.840Z,58.57
2018-08-24T02:35:34.234Z,59.03
2018-08-24T02:36:37.723Z,59.13
2018-08-24T02:37:41.127Z,59.31
2018-08-24T02:38:44.525Z,59.02
2018-08-24T02:39:47.970Z,59.48
2018-08-24T02:40:51.376Z,59.29
2018-08-24T02:41:54.792Z,58.99
2018-08-24T02:42:58.205Z,59.44
2018-08-24T02:44:01.602Z,59.18
2018-08-24T02:45:05.398Z,59.38
2018-08-24T02:46:10.140Z,59.03
2018-08-24T02:47:14.614Z,59.32
2018-08-24T02:48:18.041Z,58.71
2018-08-24T02:49:21.548Z,59.26
2018-08-24T02:50:24.944Z,59.32
2018-08-24T02:51:28.358Z,58.52
2018-08-24T02:52:31.777Z,59.26
2018-08-24T02:53:35.169Z,58.98
2018-08-24T02:54:38.617Z,59.19
2018-08-24T02:55:42.083Z,59.08
2018-08-24T02:56:45.480Z,58.64
2018-08-24T02:57:48.875Z,58.95
2018-08-24T02:58:52.488Z,58.61
2018-08-24T02:59:55.890Z,59.15
2018-08-24T03:00:59.371Z,58.97
2018-08-24T03:02:02.979Z,58.93
2018-08-24T03:03:06.622Z,58.71
2018-08-24T03:04:10.011Z,59.07
2018-08-24T03:05:13.474Z,58.60
2018-08-24T03:06:17.068Z,58.86
2018-08-24T03:07:20.530Z,59.08
2018-08-24T03:08:23.986Z,58.90
2018-08-24T03:09:27.387Z,58.81
2018-08-24T03:10:30.845Z,59.00
2018-08-24T03:11:34.265Z,59.36
2018-08-24T03:12:37.687Z,58.99
2018-08-24T03:13:41.091Z,58.83
2018-08-24T03:14:44.467Z,58.88
2018-08-24T03:15:47.864Z,59.06
2018-08-24T03:16:56.572Z,58.83
2018-08-24T03:17:59.962Z,59.36
2018-08-24T03:19:03.617Z,58.70
2018-08-24T03:20:07.060Z,58.97
2018-08-24T03:21:10.478Z,58.90
2018-08-24T03:22:13.856Z,59.26
2018-08-24T03:23:17.254Z,59.09
2018-08-24T03:24:20.682Z,58.93
2018-08-24T03:25:24.121Z,59.02
2018-08-24T03:26:27.556Z,59.01
2018-08-24T03:27:30.975Z,58.34
2018-08-24T03:28:34.365Z,59.01
2018-08-24T03:29:37.785Z,59.17
2018-08-24T03:30:41.171Z,59.15
2018-08-24T03:31:44.580Z,59.20
2018-08-24T03:32:47.980Z,58.90
2018-08-24T03:33:51.354Z,59.10
2018-08-24T03:34:54.783Z,59.09
2018-08-24T03:35:58.176Z,58.79
2018-08-24T03:37:01.557Z,58.77
2018-08-24T03:38:04.991Z,59.29
2018-08-24T03:39:09.714Z,58.87
2018-08-24T03:40:13.123Z,59.12
2018-08-24T03:41:16.576Z,59.09
2018-08-24T03:42:20.396Z,59.22
2018-08-24T03:43:23.834Z,59.54
2018-08-24T03:44:27.216Z,59.21
2018-08-24T03:45:30.587Z,58.72
2018-08-24T03:46:33.974Z,59.12
2018-08-24T03:47:37.375Z,59.06
2018-08-24T03:48:40.779Z,58.54
2018-08-24T03:49:44.198Z,59.00
2018-08-24T03:50:47.618Z,58.21
2018-08-24T03:51:51.133Z,59.20
2018-08-24T03:52:54.580Z,58.80
2018-08-24T03:53:57.974Z,59.19
2018-08-24T03:55:01.349Z,58.58
2018-08-24T03:56:04.781Z,59.05
2018-08-24T03:57:08.210Z,59.11
2018-08-24T03:58:11.601Z,59.18
2018-08-24T03:59:15.013Z,59.00
2018-08-24T04:00:18.505Z,58.83
2018-08-24T04:01:21.909Z,58.73
2018-08-24T04:02:25.375Z,59.09
2018-08-24T04:03:29.680Z,59.04
2018-08-24T04:04:33.042Z,59.42
2018-08-24T04:05:36.429Z,58.83
2018-08-24T04:06:39.818Z,59.39
2018-08-24T04:07:43.888Z,59.46
2018-08-24T04:08:47.298Z,58.94
2018-08-24T04:09:50.671Z,58.45
2018-08-24T04:10:54.072Z,58.43
2018-08-24T04:11:57.450Z,58.66
2018-08-24T04:13:00.864Z,58.36
2018-08-24T04:14:04.255Z,58.58
2018-08-24T04:15:07.715Z,58.63
2018-08-24T04:16:12.376Z,58.26
2018-08-24T04:17:21.085Z,58.41
2018-08-24T04:18:24.491Z,58.65
2018-08-24T04:19:28.730Z,58.67
2018-08-24T04:20:32.128Z,58.19
2018-08-24T04:21:35.539Z,58.41
2018-08-24T04:22:38.976Z,58.21
2018-08-24T04:23:42.959Z,58.40
2018-08-24T04:24:46.383Z,58.25
2018-08-24T04:25:49.834Z,58.92
2018-08-24T04:26:54.132Z,58.38
2018-08-24T04:27:57.740Z,58.90
2018-08-24T04:29:01.173Z,58.96
2018-08-24T04:30:04.636Z,58.42
2018-08-24T04:31:08.033Z,58.44
2018-08-24T04:32:11.430Z,58.27
2018-08-24T04:33:14.876Z,59.14
2018-08-24T04:34:18.342Z,58.46
2018-08-24T04:35:21.732Z,59.06
2018-08-24T04:36:25.125Z,59.15
2018-08-24T04:37:28.536Z,55.39
2018-08-24T04:38:31.938Z,54.78
2018-08-24T04:39:35.368Z,54.29
2018-08-24T04:40:38.888Z,53.62
2018-08-24T04:41:42.993Z,54.32
2018-08-24T04:42:46.400Z,54.22
2018-08-24T04:43:49.789Z,53.81
2018-08-24T04:44:53.276Z,53.57
2018-08-24T04:45:56.677Z,53.25
2018-08-24T04:47:00.097Z,54.22
2018-08-24T04:48:03.467Z,53.57
2018-08-24T04:49:07.298Z,53.47
2018-08-24T04:50:10.711Z,53.29
2018-08-24T04:51:14.118Z,53.15
2018-08-24T04:52:17.653Z,53.46
2018-08-24T04:53:21.088Z,53.69
2018-08-24T04:54:24.559Z,53.69
2018-08-24T04:55:27.987Z,54.07
2018-08-24T04:56:31.736Z,52.99
2018-08-24T04:57:35.102Z,53.35
2018-08-24T04:58:38.495Z,53.67
2018-08-24T04:59:41.922Z,53.66
2018-08-24T05:00:45.350Z,52.81
2018-08-24T05:01:48.711Z,53.70
2018-08-24T05:02:52.082Z,53.15
2018-08-24T05:03:55.591Z,53.78
2018-08-24T05:04:58.957Z,53.32
2018-08-24T05:06:02.334Z,53.19
2018-08-24T05:07:05.758Z,53.76
2018-08-24T05:08:09.168Z,53.13
2018-08-24T05:09:12.582Z,53.14
2018-08-24T05:10:15.994Z,53.34
2018-08-24T05:11:19.491Z,53.86
2018-08-24T05:12:23.013Z,53.54
2018-08-24T05:13:26.467Z,53.68
2018-08-24T05:14:30.113Z,53.78
2018-08-24T05:15:34.163Z,53.13
2018-08-24T05:16:37.662Z,54.22
2018-08-24T05:17:41.137Z,53.49
2018-08-24T05:18:44.533Z,53.66
2018-08-24T05:19:47.975Z,53.95
2018-08-24T05:20:51.514Z,53.37
2018-08-24T05:21:54.928Z,53.35
2018-08-24T05:22:58.346Z,53.29
2018-08-24T05:24:01.752Z,53.92
2018-08-24T05:25:05.547Z,53.37
2018-08-24T05:26:08.960Z,53.63
2018-08-24T05:27:12.375Z,53.33
2018-08-24T05:28:16.229Z,53.56
2018-08-24T05:29:19.575Z,54.22
2018-08-24T05:30:22.997Z,53.68
2018-08-24T05:31:26.444Z,53.75
2018-08-24T05:32:29.828Z,54.66
2018-08-24T05:33:33.220Z,54.16
2018-08-24T05:34:36.644Z,54.22
2018-08-24T05:35:40.266Z,53.46
2018-08-24T05:36:43.600Z,53.58
2018-08-24T05:37:47.056Z,54.26
2018-08-24T05:38:50.449Z,53.46
2018-08-24T05:39:53.899Z,54.24
2018-08-24T05:40:57.523Z,53.66
2018-08-24T05:42:01.002Z,54.14
2018-08-24T05:43:04.693Z,54.11
2018-08-24T05:44:08.106Z,54.19
2018-08-24T05:45:11.552Z,53.98
2018-08-24T05:46:14.961Z,54.39
2018-08-24T05:47:18.528Z,55.04
2018-08-24T05:48:21.933Z,54.29
2018-08-24T05:49:25.346Z,54.35
2018-08-24T05:50:28.768Z,54.60
2018-08-24T05:51:32.184Z,54.23
2018-08-24T05:52:35.557Z,54.79
2018-08-24T05:53:38.922Z,54.74
2018-08-24T05:54:42.310Z,54.59
2018-08-24T05:55:45.870Z,54.72
2018-08-24T05:56:49.304Z,54.80
2018-08-24T05:57:52.779Z,54.81
2018-08-24T05:58:56.265Z,54.47
2018-08-24T05:59:59.672Z,54.92
2018-08-24T06:01:03.188Z,54.78
2018-08-24T06:02:06.686Z,54.71
2018-08-24T06:03:10.592Z,54.83
2018-08-24T06:04:13.998Z,54.85
2018-08-24T06:05:17.392Z,54.13
2018-08-24T06:06:20.816Z,54.61
2018-08-24T06:07:24.242Z,54.75
2018-08-24T06:08:27.634Z,54.39
2018-08-24T06:09:31.047Z,54.43
2018-08-24T06:10:34.470Z,54.44
2018-08-24T06:11:37.952Z,54.35
2018-08-24T06:12:41.338Z,54.13
2018-08-24T06:13:44.831Z,54.06
2018-08-24T06:14:48.223Z,54.18
2018-08-24T06:15:51.722Z,54.58
2018-08-24T06:17:00.300Z,54.90
2018-08-24T06:18:03.974Z,54.34
2018-08-24T06:19:08.249Z,54.89
2018-08-24T06:20:11.745Z,54.59
2018-08-24T06:21:15.150Z,54.53
2018-08-24T06:22:18.589Z,54.12
2018-08-24T06:23:22.050Z,54.58
2018-08-24T06:24:25.508Z,53.98
2018-08-24T06:25:30.603Z,54.67
2018-08-24T06:26:34.104Z,54.66
2018-08-24T06:27:37.523Z,54.07
2018-08-24T06:28:40.957Z,53.94
2018-08-24T06:29:44.354Z,54.14
2018-08-24T06:30:47.751Z,54.26
2018-08-24T06:31:51.177Z,54.33
2018-08-24T06:32:54.674Z,54.15
2018-08-24T06:33:58.038Z,54.34
2018-08-24T06:35:01.510Z,54.43
2018-08-24T06:36:04.951Z,53.87
2018-08-24T06:37:08.667Z,54.11
2018-08-24T06:38:12.072Z,54.53
2018-08-24T06:39:15.521Z,53.80
2018-08-24T06:40:19.480Z,54.49
2018-08-24T06:41:23.461Z,54.41
2018-08-24T06:42:26.968Z,54.35
2018-08-24T06:43:30.379Z,53.55
2018-08-24T06:44:33.856Z,54.26
2018-08-24T06:45:37.245Z,54.63
2018-08-24T06:46:40.691Z,53.88
2018-08-24T06:47:44.195Z,54.23
2018-08-24T06:48:47.775Z,54.50
2018-08-24T06:49:51.203Z,54.67
2018-08-24T06:50:54.625Z,54.07
2018-08-24T06:51:58.073Z,54.61
2018-08-24T06:53:01.586Z,53.93
2018-08-24T06:54:04.962Z,54.16
2018-08-24T06:55:08.383Z,54.41
2018-08-24T06:56:11.826Z,54.81
2018-08-24T06:57:15.418Z,54.04
2018-08-24T06:58:19.017Z,54.18
2018-08-24T06:59:22.526Z,54.44
2018-08-24T07:00:31.512Z,54.20
2018-08-24T07:01:34.929Z,53.84
2018-08-24T07:02:38.392Z,54.49
2018-08-24T07:03:41.848Z,54.19
2018-08-24T07:04:45.265Z,54.73
2018-08-24T07:05:48.666Z,54.01
2018-08-24T07:06:52.098Z,53.96
2018-08-24T07:07:55.578Z,54.22
2018-08-24T07:08:59.058Z,54.65
2018-08-24T07:10:02.507Z,53.74
2018-08-24T07:11:05.932Z,53.64
2018-08-24T07:12:12.068Z,54.31
2018-08-24T07:13:15.621Z,54.08
2018-08-24T07:14:19.120Z,54.49
2018-08-24T07:15:22.569Z,54.03
2018-08-24T07:16:26.012Z,54.53
2018-08-24T07:17:34.801Z,54.35
2018-08-24T07:18:38.244Z,54.21
2018-08-24T07:19:41.666Z,54.06
2018-08-24T07:20:45.084Z,54.16
2018-08-24T07:21:48.482Z,54.52
2018-08-24T07:22:52.526Z,54.19
2018-08-24T07:23:55.992Z,54.35
2018-08-24T07:24:59.612Z,54.60
2018-08-24T07:26:02.990Z,54.42
2018-08-24T07:27:06.413Z,54.40
2018-08-24T07:28:09.832Z,54.11
2018-08-24T07:29:13.274Z,54.18
2018-08-24T07:30:16.695Z,54.47
2018-08-24T07:31:20.099Z,55.21
2018-08-24T07:32:23.502Z,55.48
2018-08-24T07:33:26.931Z,54.64
2018-08-24T07:34:30.366Z,55.46
2018-08-24T07:35:33.764Z,55.14
2018-08-24T07:36:37.189Z,55.10
2018-08-24T07:37:40.769Z,55.50
2018-08-24T07:38:44.248Z,55.29
2018-08-24T07:39:47.721Z,54.61
2018-08-24T07:40:51.264Z,55.40
2018-08-24T07:41:54.772Z,54.96
2018-08-24T07:42:58.152Z,55.12
2018-08-24T07:44:01.560Z,55.28
2018-08-24T07:45:04.988Z,55.02
2018-08-24T07:46:08.426Z,54.58
2018-08-24T07:47:11.830Z,55.44
2018-08-24T07:48:15.222Z,54.84
2018-08-24T07:49:18.665Z,55.27
2018-08-24T07:50:23.027Z,55.02
2018-08-24T07:51:26.461Z,55.33
2018-08-24T07:52:29.852Z,55.38
2018-08-24T07:53:33.249Z,55.18
2018-08-24T07:54:36.676Z,56.01
2018-08-24T07:55:40.098Z,55.25
2018-08-24T07:56:43.538Z,55.91
2018-08-24T07:57:46.945Z,55.37
2018-08-24T07:58:50.437Z,56.25
2018-08-24T07:59:53.910Z,55.54
2018-08-24T08:00:57.423Z,55.41
2018-08-24T08:02:00.836Z,55.60
2018-08-24T08:03:04.268Z,55.78
2018-08-24T08:04:07.652Z,55.96
2018-08-24T08:05:11.148Z,55.75
2018-08-24T08:06:14.535Z,55.46
2018-08-24T08:07:17.969Z,55.70
2018-08-24T08:08:21.398Z,55.93
2018-08-24T08:09:24.886Z,56.26
2018-08-24T08:10:33.752Z,55.87
2018-08-24T08:11:39.263Z,56.23
2018-08-24T08:12:42.756Z,55.60
2018-08-24T08:13:46.152Z,55.60
2018-08-24T08:14:54.888Z,56.45
2018-08-24T08:15:58.295Z,55.30
2018-08-24T08:17:02.841Z,56.19
2018-08-24T08:18:06.344Z,56.10
2018-08-24T08:19:09.902Z,56.37
2018-08-24T08:20:13.281Z,55.92
2018-08-24T08:21:16.698Z,55.76
2018-08-24T08:22:20.113Z,55.87
2018-08-24T08:23:23.803Z,55.86
2018-08-24T08:24:27.240Z,55.71
2018-08-24T08:25:30.643Z,56.40
2018-08-24T08:26:34.088Z,56.13
2018-08-24T08:27:37.489Z,55.83
2018-08-24T08:28:40.911Z,56.02
2018-08-24T08:29:49.600Z,56.03
2018-08-24T08:30:53.106Z,56.37
2018-08-24T08:31:56.594Z,56.34
2018-08-24T08:33:00.011Z,56.06
2018-08-24T08:34:03.400Z,56.10
2018-08-24T08:35:06.774Z,56.13
2018-08-24T08:36:10.214Z,56.50
2018-08-24T08:37:13.670Z,55.90
2018-08-24T08:38:17.108Z,56.27
2018-08-24T08:39:20.624Z,56.15
2018-08-24T08:40:24.098Z,56.05
2018-08-24T08:41:27.525Z,56.31
2018-08-24T08:42:31.407Z,56.25
2018-08-24T08:43:34.915Z,55.89
2018-08-24T08:44:38.309Z,56.73
2018-08-24T08:45:41.765Z,56.75
2018-08-24T08:46:45.197Z,56.96
2018-08-24T08:47:48.634Z,56.54
2018-08-24T08:48:52.075Z,56.65
2018-08-24T08:49:55.572Z,56.41
2018-08-24T08:50:59.061Z,56.48
2018-08-24T08:52:02.492Z,56.95
2018-08-24T08:53:05.934Z,56.36
2018-08-24T08:54:09.336Z,56.73
2018-08-24T08:55:12.807Z,56.93
2018-08-24T08:56:16.192Z,56.13
2018-08-24T08:57:19.772Z,56.06
2018-08-24T08:58:23.229Z,56.24
2018-08-24T08:59:26.812Z,56.54
2018-08-24T09:00:30.296Z,56.58
2018-08-24T09:01:33.725Z,56.17
2018-08-24T09:02:37.144Z,56.78
2018-08-24T09:03:40.515Z,56.58
2018-08-24T09:04:44.022Z,56.22
2018-08-24T09:05:47.425Z,56.16
2018-08-24T09:06:50.861Z,56.06
2018-08-24T09:07:54.265Z,56.42
2018-08-24T09:08:57.677Z,56.25
2018-08-24T09:10:01.127Z,57.13
2018-08-24T09:11:04.498Z,56.19
2018-08-24T09:12:09.017Z,56.58
2018-08-24T09:13:12.455Z,56.57
2018-08-24T09:14:16.152Z,56.24
2018-08-24T09:15:19.587Z,56.65
2018-08-24T09:16:23.022Z,57.07
2018-08-24T09:17:31.707Z,56.60
2018-08-24T09:18:40.530Z,56.38
2018-08-24T09:19:49.295Z,56.34
2018-08-24T09:20:57.879Z,56.36
2018-08-24T09:22:06.671Z,56.80
2018-08-24T09:23:15.284Z,56.68
2018-08-24T09:24:24.117Z,56.55
2018-08-24T09:25:32.807Z,56.27
2018-08-24T09:26:41.614Z,57.11
2018-08-24T09:27:48.224Z,56.89
2018-08-24T09:28:53.007Z,56.88
2018-08-24T09:29:58.292Z,57.13
2018-08-24T09:31:05.144Z,56.72
2018-08-24T09:32:08.558Z,56.67
2018-08-24T09:33:12.010Z,57.13
2018-08-24T09:34:15.397Z,56.93
2018-08-24T09:35:18.871Z,56.33
2018-08-24T09:36:23.233Z,56.26
2018-08-24T09:37:31.939Z,56.81
2018-08-24T09:38:35.380Z,56.60
2018-08-24T09:39:38.812Z,56.47
2018-08-24T09:40:47.451Z,56.37
2018-08-24T09:41:50.866Z,57.28
2018-08-24T09:42:54.303Z,56.74
2018-08-24T09:43:59.839Z,56.37
2018-08-24T09:45:03.738Z,57.10
2018-08-24T09:46:07.191Z,56.95
2018-08-24T09:47:15.878Z,56.79
2018-08-24T09:48:24.620Z,56.56
2018-08-24T09:49:30.309Z,56.57
2018-08-24T09:50:39.140Z,56.96
2018-08-24T09:51:42.591Z,56.38
2018-08-24T09:52:51.290Z,56.82
2018-08-24T09:54:00.052Z,56.32
2018-08-24T09:55:03.520Z,56.92
2018-08-24T09:56:07.107Z,56.60
2018-08-24T09:57:10.532Z,56.87
2018-08-24T09:58:13.902Z,56.35
2018-08-24T09:59:17.300Z,56.68
2018-08-24T10:00:20.854Z,56.75
2018-08-24T10:01:29.426Z,56.82
2018-08-24T10:02:38.181Z,57.07
2018-08-24T10:03:46.948Z,56.32
2018-08-24T10:04:55.667Z,56.79
2018-08-24T10:06:04.491Z,56.65
2018-08-24T10:07:13.267Z,57.07
2018-08-24T10:08:22.098Z,56.47
2018-08-24T10:09:25.501Z,56.64
2018-08-24T10:10:28.940Z,56.50
2018-08-24T10:11:32.345Z,56.27
2018-08-24T10:12:36.288Z,56.52
2018-08-24T10:13:39.773Z,56.63
2018-08-24T10:14:43.186Z,56.18
2018-08-24T10:15:47.007Z,56.54
2018-08-24T10:16:50.390Z,56.75
2018-08-24T10:17:53.800Z,56.64
2018-08-24T10:18:57.335Z,56.12
2018-08-24T10:20:00.771Z,56.08
2018-08-24T10:21:04.269Z,56.74
2018-08-24T10:22:07.679Z,56.17
2018-08-24T10:23:11.135Z,56.58
2018-08-24T10:24:14.529Z,56.88
2018-08-24T10:25:18.629Z,56.27
2018-08-24T10:26:22.445Z,56.04
2018-08-24T10:27:25.868Z,56.88
2018-08-24T10:28:29.241Z,56.35
2018-08-24T10:29:32.702Z,56.81
2018-08-24T10:30:36.109Z,56.09
2018-08-24T10:31:39.552Z,56.33
2018-08-24T10:32:42.969Z,56.83
2018-08-24T10:33:46.555Z,56.14
2018-08-24T10:34:49.920Z,56.55
2018-08-24T10:35:53.437Z,56.11
2018-08-24T10:36:56.888Z,56.23
2018-08-24T10:38:00.304Z,56.86
2018-08-24T10:39:04.642Z,56.22
2018-08-24T10:40:07.989Z,56.07
2018-08-24T10:41:11.701Z,56.49
2018-08-24T10:42:15.127Z,56.64
2018-08-24T10:43:18.529Z,56.67
2018-08-24T10:44:21.960Z,55.86
2018-08-24T10:45:25.493Z,56.09
2018-08-24T10:46:28.914Z,56.77
2018-08-24T10:47:32.317Z,56.45
2018-08-24T10:48:35.834Z,56.01
2018-08-24T10:49:39.228Z,56.80
2018-08-24T10:50:42.705Z,56.40
2018-08-24T10:51:46.111Z,56.34
2018-08-24T10:52:49.520Z,55.82
2018-08-24T10:53:52.965Z,55.95
2018-08-24T10:54:56.389Z,56.45
2018-08-24T10:55:59.899Z,55.81
2018-08-24T10:57:03.295Z,56.48
2018-08-24T10:58:06.709Z,56.69
2018-08-24T10:59:10.082Z,56.16
2018-08-24T11:00:13.482Z,56.51
2018-08-24T11:01:16.867Z,56.10
2018-08-24T11:02:20.280Z,55.83
2018-08-24T11:03:23.960Z,56.46
2018-08-24T11:04:27.379Z,55.95
2018-08-24T11:05:30.900Z,55.81
2018-08-24T11:06:34.226Z,56.07
2018-08-24T11:07:37.696Z,56.25
2018-08-24T11:08:41.105Z,56.25
2018-08-24T11:09:44.504Z,56.04
2018-08-24T11:10:47.878Z,55.97
2018-08-24T11:11:51.276Z,55.94
2018-08-24T11:12:54.841Z,54.94
2018-08-24T11:13:58.259Z,54.36
2018-08-24T11:15:03.623Z,54.34
2018-08-24T11:16:07.325Z,54.17
2018-08-24T11:17:10.731Z,55.12
2018-08-24T11:18:14.186Z,54.35
2018-08-24T11:19:17.595Z,55.10
2018-08-24T11:20:21.024Z,53.98
2018-08-24T11:21:24.455Z,53.60
2018-08-24T11:22:27.996Z,54.29
2018-08-24T11:23:31.392Z,54.31
2018-08-24T11:24:34.788Z,54.01
2018-08-24T11:25:38.480Z,54.19
2018-08-24T11:26:41.934Z,53.29
2018-08-24T11:27:45.363Z,52.97
2018-08-24T11:28:48.823Z,53.13
2018-08-24T11:29:52.248Z,52.70
2018-08-24T11:30:55.728Z,52.95
2018-08-24T11:31:59.120Z,52.91
2018-08-24T11:33:02.634Z,52.85
2018-08-24T11:34:06.076Z,53.38
2018-08-24T11:35:09.504Z,52.96
2018-08-24T11:36:12.993Z,53.02
2018-08-24T11:37:16.331Z,53.64
2018-08-24T11:38:19.756Z,53.12
2018-08-24T11:39:23.222Z,53.67
2018-08-24T11:40:26.646Z,53.20
2018-08-24T11:41:30.060Z,53.57
2018-08-24T11:42:33.496Z,53.55
2018-08-24T11:43:36.889Z,53.45
2018-08-24T11:44:40.293Z,53.28
2018-08-24T11:45:43.687Z,53.03
2018-08-24T11:46:47.114Z,52.41
2018-08-24T11:47:50.607Z,52.14
2018-08-24T11:48:54.115Z,51.93
2018-08-24T11:49:57.536Z,51.43
2018-08-24T11:51:01.354Z,50.78
2018-08-24T11:52:04.761Z,51.06
2018-08-24T11:53:08.199Z,50.14
2018-08-24T11:54:11.697Z,49.48
2018-08-24T11:55:15.119Z,49.08
2018-08-24T11:56:18.530Z,49.38
2018-08-24T11:57:22.161Z,48.82
2018-08-24T11:58:25.617Z,48.93
2018-08-24T11:59:29.022Z,48.42
2018-08-24T12:00:33.457Z,48.91
2018-08-24T12:01:36.848Z,48.74
2018-08-24T12:02:40.272Z,47.83
2018-08-24T12:03:43.648Z,48.18
2018-08-24T12:04:47.069Z,46.46
2018-08-24T12:05:50.491Z,47.16
2018-08-24T12:06:53.957Z,47.40
2018-08-24T12:07:57.651Z,45.89
2018-08-24T12:09:01.036Z,46.30
2018-08-24T12:10:04.497Z,43.24
2018-08-24T12:11:07.920Z,43.11
2018-08-24T12:12:11.341Z,42.81
2018-08-24T12:13:14.781Z,41.33
2018-08-24T12:14:18.252Z,41.04
2018-08-24T12:15:22.315Z,40.67
2018-08-24T12:16:25.769Z,40.03
2018-08-24T12:17:33.215Z,39.89
2018-08-24T12:18:36.723Z,38.34
2018-08-24T12:19:40.146Z,38.21
2018-08-24T12:20:43.618Z,38.07
2018-08-24T12:21:47.028Z,38.59
2018-08-24T12:22:50.466Z,38.42
2018-08-24T12:23:53.886Z,38.71
2018-08-24T12:24:57.296Z,38.69
2018-08-24T12:26:00.796Z,38.86
2018-08-24T12:27:04.253Z,38.80
2018-08-24T12:28:07.718Z,39.26
2018-08-24T12:29:11.360Z,38.73
2018-08-24T12:30:14.888Z,36.87
2018-08-24T12:31:18.436Z,36.50
2018-08-24T12:32:21.884Z,36.20
2018-08-24T12:33:25.433Z,36.74
2018-08-24T12:34:28.883Z,36.62
2018-08-24T12:35:32.296Z,35.61
2018-08-24T12:36:35.804Z,35.95
2018-08-24T12:37:43.645Z,35.48
2018-08-24T12:38:47.259Z,35.31
2018-08-24T12:39:51.230Z,36.10
2018-08-24T12:40:54.670Z,36.39
2018-08-24T12:41:58.086Z,36.04
2018-08-24T12:43:01.482Z,35.88
2018-08-24T12:44:04.908Z,36.35
2018-08-24T12:45:08.324Z,37.07
2018-08-24T12:46:11.845Z,37.01
2018-08-24T12:47:15.265Z,36.80
2018-08-24T12:48:18.648Z,37.11
2018-08-24T12:49:22.112Z,37.93
2018-08-24T12:50:25.513Z,37.52
2018-08-24T12:51:29.269Z,37.96
2018-08-24T12:52:32.703Z,37.85
2018-08-24T12:53:36.839Z,37.57
2018-08-24T12:54:40.248Z,37.84
2018-08-24T12:55:43.633Z,38.11
2018-08-24T12:56:47.157Z,37.76
2018-08-24T12:57:50.550Z,37.43
2018-08-24T12:58:54.155Z,37.12
2018-08-24T12:59:58.196Z,37.49
2018-08-24T13:01:01.567Z,37.54
2018-08-24T13:02:05.079Z,37.98
2018-08-24T13:03:08.463Z,37.99
2018-08-24T13:04:11.872Z,38.50
2018-08-24T13:05:15.286Z,38.86
2018-08-24T13:06:18.723Z,39.48
2018-08-24T13:07:22.265Z,39.17
2018-08-24T13:08:25.696Z,39.72
2018-08-24T13:09:29.120Z,39.90
2018-08-24T13:10:32.504Z,39.66
2018-08-24T13:11:35.940Z,39.88
2018-08-24T13:12:39.372Z,39.83
2018-08-24T13:13:42.964Z,39.85
2018-08-24T13:14:46.379Z,39.83
2018-08-24T13:15:49.772Z,40.16
2018-08-24T13:16:53.203Z,39.66
2018-08-24T13:17:56.637Z,40.22
2018-08-24T13:19:00.058Z,40.51
2018-08-24T13:20:03.569Z,40.84
2018-08-24T13:21:07.034Z,41.27
2018-08-24T13:22:10.437Z,41.25
2018-08-24T13:23:13.988Z,41.79
2018-08-24T13:24:18.064Z,41.65
2018-08-24T13:25:21.446Z,41.29
2018-08-24T13:26:24.869Z,41.93
2018-08-24T13:27:28.341Z,41.95
2018-08-24T13:28:31.756Z,42.22
2018-08-24T13:29:35.156Z,42.05
2018-08-24T13:30:38.546Z,41.83
2018-08-24T13:31:42.030Z,42.31
2018-08-24T13:32:45.434Z,42.64
2018-08-24T13:33:49.045Z,42.49
2018-08-24T13:34:52.475Z,43.28
2018-08-24T13:35:55.974Z,42.73
2018-08-24T13:36:59.367Z,42.78
2018-08-24T13:38:02.823Z,43.14
2018-08-24T13:39:08.189Z,42.88
2018-08-24T13:40:11.729Z,42.93
2018-08-24T13:41:15.174Z,43.06
2018-08-24T13:42:18.579Z,43.36
2018-08-24T13:43:22.028Z,43.17